Time;durP1;ratioP1;P1;durP2;ratioP2;P2;SDS_P1;SDS_P2;PMS_P1;PMS_P2;Temp;Humidity;BMP_temperature;BMP_pressure;BME280_temperature;BME280_humidity;BME280_pressure;Samples;Min_cycle;Max_cycle;Signal;HPM_P1;HPM_P2
2021/06/12 00:02:10;;;;;;;8.25;3.03;;;;;;;18.63;50.41;99429.94;5114315;28;20096;-74
2021/06/12 00:04:36;;;;;;;4.70;2.95;;;;;;;18.60;50.07;99426.72;5096400;28;20491;-74
2021/06/12 00:07:02;;;;;;;11.60;3.63;;;;;;;18.65;50.25;99438.75;5096626;28;20050;-73
2021/06/12 00:09:28;;;;;;;10.48;3.00;;;;;;;18.73;50.12;99443.31;5063080;28;20042;-75
2021/06/12 00:11:54;;;;;;;11.57;2.97;;;;;;;18.77;50.01;99446.50;5095970;28;20063;-75
2021/06/12 00:14:20;;;;;;;6.10;2.97;;;;;;;18.83;50.04;99443.13;5079221;28;20039;-75
2021/06/12 00:16:46;;;;;;;5.22;3.05;;;;;;;18.82;49.58;99450.41;5114051;28;20051;-76
2021/06/12 00:19:12;;;;;;;13.45;3.20;;;;;;;18.85;49.25;99451.94;5079111;28;20078;-75
2021/06/12 00:21:38;;;;;;;6.78;3.00;;;;;;;18.87;49.49;99450.72;5095659;28;20050;-75
2021/06/12 00:24:05;;;;;;;7.30;3.05;;;;;;;18.95;49.27;99457.13;5114285;28;20097;-74
2021/06/12 00:26:31;;;;;;;7.65;3.00;;;;;;;18.99;49.15;99464.72;5113870;28;20059;-74
2021/06/12 00:28:58;;;;;;;7.53;2.85;;;;;;;19.03;48.80;99471.53;5113657;28;20506;-74
2021/06/12 00:31:24;;;;;;;4.97;2.95;;;;;;;19.09;48.73;99470.81;5113912;28;20046;-74
2021/06/12 00:33:50;;;;;;;8.35;2.72;;;;;;;19.10;48.48;99469.78;5095679;28;20082;-74
2021/06/12 00:36:15;;;;;;;9.45;3.20;;;;;;;19.13;48.35;99474.00;5078733;28;20047;-74
2021/06/12 00:38:41;;;;;;;8.50;2.75;;;;;;;19.19;48.04;99472.47;5095351;28;20047;-74
2021/06/12 00:41:07;;;;;;;7.93;2.90;;;;;;;19.24;48.21;99472.78;5062020;28;20482;-74
2021/06/12 00:43:34;;;;;;;6.63;3.08;;;;;;;19.24;47.92;99473.63;5094136;28;20043;-74
2021/06/12 00:46:01;;;;;;;5.97;2.80;;;;;;;19.21;47.73;99470.44;5094998;28;20455;-76
2021/06/12 00:48:28;;;;;;;4.80;2.70;;;;;;;19.16;47.78;99463.66;5078286;28;20152;-74
2021/06/12 00:50:54;;;;;;;5.65;2.50;;;;;;;19.25;48.15;99475.31;5078571;28;20579;-74
2021/06/12 00:53:36;;;;;;;12.55;2.80;;;;;;;19.35;48.64;99478.66;5061864;28;20049;-74
2021/06/12 00:56:06;;;;;;;4.28;2.70;;;;;;;19.40;48.96;99478.13;5097767;28;20559;-73
2021/06/12 00:58:33;;;;;;;7.50;3.05;;;;;;;19.44;48.93;99476.75;5113451;28;20062;-74
2021/06/12 01:01:00;;;;;;;7.25;2.80;;;;;;;19.40;48.23;99470.00;5078742;28;20096;-75
2021/06/12 01:03:27;;;;;;;5.90;2.80;;;;;;;19.42;48.30;99476.09;5078751;28;20055;-74
2021/06/12 01:05:53;;;;;;;6.15;2.65;;;;;;;19.38;48.13;99480.19;5078343;28;20066;-74
2021/06/12 01:08:19;;;;;;;8.48;3.10;;;;;;;19.42;48.01;99476.94;5113311;28;20051;-75
2021/06/12 01:10:45;;;;;;;4.97;2.75;;;;;;;19.50;48.70;99483.34;5113252;28;20070;-73
2021/06/12 01:13:42;;;;;;;8.18;2.45;;;;;;;19.55;47.84;99480.94;5094757;28;20104;-73
2021/06/12 01:16:12;;;;;;;9.90;3.10;;;;;;;19.56;48.16;99494.34;5095216;28;20052;-75
2021/06/12 01:18:38;;;;;;;5.40;2.67;;;;;;;19.48;48.36;99486.22;5094945;28;20047;-74
2021/06/12 01:21:26;;;;;;;6.15;2.90;;;;;;;19.47;48.33;99499.97;5077981;28;20498;-74
2021/06/12 01:24:15;;;;;;;7.00;2.77;;;;;;;19.38;48.96;99507.28;5061221;28;20565;-75
2021/06/12 01:26:52;;;;;;;10.60;2.90;;;;;;;19.40;49.01;99505.25;5113319;28;20044;-74
2021/06/12 01:29:40;;;;;;;6.30;2.83;;;;;;;19.25;49.19;99513.25;5095173;28;20051;-75
2021/06/12 01:32:06;;;;;;;21.73;3.30;;;;;;;19.18;49.34;99520.38;5094968;28;20085;-74
2021/06/12 01:34:31;;;;;;;7.28;3.63;;;;;;;19.04;49.96;99513.84;5113528;28;20154;-75
2021/06/12 01:36:57;;;;;;;7.55;2.80;;;;;;;19.03;50.22;99514.00;5061316;28;20509;-75
2021/06/12 01:39:25;;;;;;;7.15;2.67;;;;;;;18.96;49.62;99518.44;5112713;28;20128;-73
2021/06/12 01:41:51;;;;;;;5.15;2.53;;;;;;;18.97;50.15;99520.97;5094630;28;20047;-76
2021/06/12 01:44:17;;;;;;;5.53;2.83;;;;;;;18.92;49.98;99520.66;5061261;28;20383;-75
2021/06/12 01:46:45;;;;;;;5.38;3.00;;;;;;;18.88;50.72;99527.41;5077892;28;20051;-75
2021/06/12 01:49:12;;;;;;;7.18;2.70;;;;;;;18.77;50.51;99522.31;5079058;28;20184;-74
2021/06/12 01:51:38;;;;;;;8.57;2.65;;;;;;;18.85;50.15;99525.06;5061703;28;20419;-74
2021/06/12 01:54:04;;;;;;;7.28;2.75;;;;;;;18.58;50.04;99529.78;5095493;28;20043;-74
2021/06/12 01:56:30;;;;;;;3.95;2.40;;;;;;;18.55;49.95;99522.00;5082109;28;20051;-73
2021/06/12 01:58:56;;;;;;;5.78;2.83;;;;;;;18.57;50.32;99535.34;5065303;28;20077;-74
2021/06/12 02:01:22;;;;;;;8.63;2.60;;;;;;;18.52;51.17;99543.16;5081738;28;20074;-74
2021/06/12 02:03:48;;;;;;;3.83;2.63;;;;;;;18.41;51.25;99534.34;5064688;28;20058;-75
2021/06/12 02:06:17;;;;;;;6.90;2.83;;;;;;;18.26;51.69;99548.69;5065087;28;20039;-73
2021/06/12 02:08:44;;;;;;;8.03;2.67;;;;;;;18.28;51.52;99546.66;5116709;28;20180;-73
2021/06/12 02:11:12;;;;;;;4.78;2.40;;;;;;;18.15;52.06;99548.00;5064856;28;20393;-74
2021/06/12 02:13:37;;;;;;;9.65;2.78;;;;;;;18.27;52.24;99550.38;5048336;28;20487;-74
2021/06/12 02:16:04;;;;;;;4.20;2.22;;;;;;;18.17;52.80;99546.00;5081366;28;20123;-75
2021/06/12 02:18:29;;;;;;;6.68;2.78;;;;;;;18.00;54.27;99555.06;5098625;28;20036;-73
2021/06/12 02:20:56;;;;;;;8.48;2.75;;;;;;;17.92;54.36;99558.59;5081638;28;20047;-73
2021/06/12 02:23:23;;;;;;;10.75;2.90;;;;;;;17.71;54.91;99553.63;5081114;28;20043;-73
2021/06/12 02:25:49;;;;;;;5.53;2.90;;;;;;;17.75;54.69;99553.25;5064767;28;20138;-74
2021/06/12 02:28:14;;;;;;;5.25;2.80;;;;;;;17.67;54.94;99565.75;5080726;28;20126;-74
2021/06/12 02:30:49;;;;;;;5.07;2.80;;;;;;;17.60;55.47;99548.50;5064066;28;20483;-74
2021/06/12 02:33:15;;;;;;;6.65;2.50;;;;;;;17.44;56.01;99559.22;5065394;28;20070;-75
2021/06/12 02:35:41;;;;;;;11.10;2.97;;;;;;;17.27;57.04;99571.81;5064408;28;20040;-74
2021/06/12 02:38:07;;;;;;;4.32;2.90;;;;;;;17.20;57.46;99563.50;5080801;28;20043;-75
2021/06/12 02:40:33;;;;;;;6.28;2.72;;;;;;;16.97;58.03;99563.19;5115913;28;20089;-75
2021/06/12 02:42:59;;;;;;;10.02;2.58;;;;;;;16.97;59.22;99568.59;5097789;28;20138;-74
2021/06/12 02:45:26;;;;;;;9.68;3.03;;;;;;;16.96;59.65;99566.91;5115730;28;20082;-73
2021/06/12 02:47:57;;;;;;;8.68;3.08;;;;;;;16.90;59.93;99561.28;5069375;28;20144;-74
2021/06/12 02:50:26;;;;;;;4.13;2.63;;;;;;;16.85;59.64;99566.28;5061111;28;20089;-74
2021/06/12 02:52:52;;;;;;;6.00;3.00;;;;;;;16.82;59.80;99574.72;5031097;28;20184;-74
2021/06/12 02:55:18;;;;;;;5.93;3.20;;;;;;;16.65;60.63;99552.94;5075946;27;20055;-74
2021/06/12 02:57:46;;;;;;;11.82;3.50;;;;;;;16.75;60.46;99567.22;5100931;27;20043;-74
2021/06/12 03:00:12;;;;;;;10.52;3.65;;;;;;;16.82;60.72;99569.31;5084081;27;20133;-75
2021/06/12 03:02:40;;;;;;;7.63;3.53;;;;;;;16.77;60.67;99577.03;5101127;27;20215;-75
2021/06/12 03:05:08;;;;;;;6.00;3.53;;;;;;;16.64;61.19;99572.84;5100623;27;20051;-75
2021/06/12 03:07:34;;;;;;;6.70;3.27;;;;;;;16.71;60.76;99568.53;5100854;27;20077;-76
2021/06/12 03:10:00;;;;;;;6.50;3.42;;;;;;;16.84;61.05;99567.28;5100927;27;20091;-75
2021/06/12 03:12:26;;;;;;;8.80;3.78;;;;;;;16.94;61.41;99579.69;5117566;27;20125;-77
2021/06/12 03:14:52;;;;;;;9.00;3.25;;;;;;;16.98;61.34;99582.94;5101062;27;20049;-75
2021/06/12 03:17:18;;;;;;;9.70;3.83;;;;;;;17.05;61.35;99584.00;5100833;27;20047;-75
2021/06/12 03:19:44;;;;;;;6.75;3.10;;;;;;;17.12;61.65;99582.34;5136024;27;20088;-78
2021/06/12 03:22:11;;;;;;;10.15;3.03;;;;;;;17.17;61.37;99585.41;5117596;27;20074;-76
2021/06/12 03:24:37;;;;;;;7.80;3.10;;;;;;;17.22;61.50;99588.47;5135527;27;20178;-76
2021/06/12 03:27:03;;;;;;;6.55;3.47;;;;;;;17.29;61.36;99583.28;5083731;27;20074;-75
2021/06/12 03:29:29;;;;;;;7.38;3.58;;;;;;;17.37;61.44;99598.69;5117326;27;20079;-74
2021/06/12 03:31:55;;;;;;;9.13;3.28;;;;;;;17.37;61.51;99590.59;5117596;27;20482;-76
2021/06/12 03:34:21;;;;;;;8.23;3.15;;;;;;;17.48;61.52;99603.84;5100482;27;20047;-75
2021/06/12 03:36:47;;;;;;;7.50;3.03;;;;;;;17.49;60.90;99600.16;5117231;27;20074;-77
2021/06/12 03:39:13;;;;;;;5.63;3.28;;;;;;;17.51;61.10;99603.50;5100102;27;20075;-76
2021/06/12 03:41:39;;;;;;;6.90;3.38;;;;;;;17.59;61.21;99611.66;5135502;27;20066;-76
2021/06/12 03:44:05;;;;;;;5.95;3.15;;;;;;;17.59;60.76;99603.56;5100525;27;20082;-75
2021/06/12 03:46:31;;;;;;;8.23;3.90;;;;;;;17.66;60.66;99610.00;5099819;27;20040;-75
2021/06/12 03:48:57;;;;;;;8.90;2.90;;;;;;;17.70;60.55;99619.50;5099555;27;20123;-75
2021/06/12 03:51:22;;;;;;;7.32;2.58;;;;;;;17.80;60.12;99622.13;5099110;27;20449;-76
2021/06/12 03:53:48;;;;;;;8.57;3.60;;;;;;;17.82;60.43;99625.50;5100288;27;20057;-76
2021/06/12 03:56:15;;;;;;;5.65;3.05;;;;;;;17.87;60.04;99625.03;5099920;27;20055;-75
2021/06/12 03:58:43;;;;;;;6.88;3.25;;;;;;;17.90;60.14;99627.38;5135069;27;20039;-76
2021/06/12 04:01:14;;;;;;;6.32;2.97;;;;;;;17.94;59.92;99615.22;5135248;27;20047;-75
2021/06/12 04:03:41;;;;;;;5.78;3.15;;;;;;;17.94;60.06;99612.50;5099445;27;20239;-75
2021/06/12 04:06:07;;;;;;;7.90;3.67;;;;;;;18.01;59.94;99613.56;5099655;27;20039;-75
2021/06/12 04:08:33;;;;;;;8.35;3.00;;;;;;;18.06;59.83;99613.94;5099450;27;20490;-76
2021/06/12 04:10:59;;;;;;;5.70;3.10;;;;;;;18.09;59.80;99608.19;5116277;27;20167;-75
2021/06/12 04:13:26;;;;;;;9.38;3.30;;;;;;;18.16;59.41;99614.63;5099083;27;20078;-75
2021/06/12 04:15:52;;;;;;;4.25;2.85;;;;;;;18.27;59.46;99615.31;5134702;27;20494;-76
2021/06/12 04:18:18;;;;;;;7.93;3.00;;;;;;;18.36;59.05;99608.94;5049244;27;20490;-75
2021/06/12 04:20:44;;;;;;;4.88;3.00;;;;;;;18.49;58.89;99603.03;5101364;27;20043;-75
2021/06/12 04:23:10;;;;;;;6.63;3.50;;;;;;;18.55;58.81;99605.91;5099176;27;20061;-76
2021/06/12 04:25:36;;;;;;;6.32;3.17;;;;;;;18.61;58.62;99591.69;5135112;27;20042;-76
2021/06/12 04:28:03;;;;;;;10.60;3.40;;;;;;;18.63;58.52;99588.84;5116409;27;20097;-76
2021/06/12 04:30:29;;;;;;;4.55;3.22;;;;;;;18.66;58.11;99583.94;5099592;27;20066;-76
2021/06/12 04:32:54;;;;;;;8.27;2.97;;;;;;;18.73;58.13;99577.84;5135034;27;20066;-77
2021/06/12 04:35:20;;;;;;;6.25;3.05;;;;;;;18.72;57.95;99576.16;5099742;27;20043;-77
2021/06/12 04:37:46;;;;;;;6.15;3.03;;;;;;;18.68;57.60;99573.75;5134736;27;20554;-76
2021/06/12 04:40:13;;;;;;;11.35;3.22;;;;;;;18.72;57.49;99560.75;5113554;27;20031;-75
2021/06/12 04:42:39;;;;;;;11.00;3.25;;;;;;;18.68;56.99;99570.22;5059594;28;20043;-75
2021/06/12 04:45:06;;;;;;;5.80;2.97;;;;;;;18.77;56.89;99557.53;5114007;28;20124;-76
2021/06/12 04:47:33;;;;;;;5.68;2.92;;;;;;;18.87;56.55;99559.06;5079220;28;20047;-76
2021/06/12 04:49:59;;;;;;;5.53;3.20;;;;;;;18.95;56.67;99555.50;5095527;28;20182;-75
2021/06/12 04:52:25;;;;;;;9.63;2.80;;;;;;;18.82;56.14;99549.75;5062717;28;20055;-76
2021/06/12 04:54:51;;;;;;;3.42;2.30;;;;;;;18.88;55.87;99547.22;5095476;28;20074;-75
2021/06/12 04:57:18;;;;;;;6.65;2.85;;;;;;;18.81;55.52;99539.97;5095755;28;20047;-76
2021/06/12 04:59:44;;;;;;;4.97;2.40;;;;;;;18.77;55.43;99544.00;5095990;28;20490;-75
2021/06/12 05:02:09;;;;;;;5.20;2.72;;;;;;;18.69;55.54;99524.03;5113624;28;20139;-77
2021/06/12 05:04:35;;;;;;;5.53;3.08;;;;;;;18.76;55.71;99528.78;5061619;28;20163;-74
2021/06/12 05:07:01;;;;;;;8.85;2.40;;;;;;;18.75;55.99;99527.09;5061249;28;20146;-77
2021/06/12 05:09:27;;;;;;;7.60;2.83;;;;;;;18.77;56.17;99536.75;5044861;28;20077;-74
2021/06/12 05:11:53;;;;;;;5.43;2.47;;;;;;;18.82;55.93;99523.53;5061265;28;20444;-74
2021/06/12 05:14:19;;;;;;;6.13;2.72;;;;;;;18.81;55.89;99537.25;5095126;28;20448;-74
2021/06/12 05:16:45;;;;;;;6.03;2.78;;;;;;;18.72;55.77;99522.00;5113262;28;20054;-75
2021/06/12 05:19:11;;;;;;;5.20;2.60;;;;;;;18.72;55.95;99530.13;5078628;28;20406;-74
2021/06/12 05:21:39;;;;;;;3.13;2.47;;;;;;;18.61;56.13;99515.88;5113701;28;20099;-75
2021/06/12 05:24:05;;;;;;;3.95;2.28;;;;;;;18.53;55.94;99507.78;5095715;28;20051;-75
2021/06/12 05:26:32;;;;;;;4.88;2.65;;;;;;;18.56;56.23;99515.56;5078463;28;20483;-73
2021/06/12 05:28:58;;;;;;;4.50;2.60;;;;;;;18.61;56.21;99515.03;5114262;28;20047;-75
2021/06/12 05:31:23;;;;;;;5.22;2.88;;;;;;;18.69;56.16;99523.16;5082473;28;20166;-78
2021/06/12 05:33:49;;;;;;;7.95;2.60;;;;;;;18.75;55.49;99508.13;5117374;28;20071;-76
2021/06/12 05:36:16;;;;;;;8.32;2.60;;;;;;;18.80;55.19;99508.44;5117797;28;20048;-78
2021/06/12 05:38:42;;;;;;;9.60;2.92;;;;;;;18.85;54.72;99506.09;5082183;28;20051;-78
2021/06/12 05:41:08;;;;;;;4.43;2.75;;;;;;;18.98;54.14;99500.97;5082137;28;20045;-77
2021/06/12 05:43:34;;;;;;;2.92;2.15;;;;;;;19.11;53.61;99504.00;5065397;28;20047;-77
2021/06/12 05:46:01;;;;;;;2.95;2.25;;;;;;;19.23;53.39;99504.47;5082250;28;20036;-75
2021/06/12 05:48:28;;;;;;;4.80;2.33;;;;;;;19.34;53.05;99497.81;5117020;28;20051;-73
2021/06/12 05:50:54;;;;;;;3.60;2.03;;;;;;;19.57;52.51;99511.44;5098953;28;20069;-74
2021/06/12 05:53:20;;;;;;;6.07;2.65;;;;;;;19.65;52.22;99493.31;5098761;28;20478;-77
2021/06/12 05:55:46;;;;;;;6.90;2.13;;;;;;;19.62;51.86;99496.34;5098635;28;20486;-78
2021/06/12 05:58:12;;;;;;;4.95;2.53;;;;;;;19.62;52.10;99498.22;5081901;28;20078;-78
2021/06/12 06:00:38;;;;;;;4.45;2.00;;;;;;;19.56;51.84;99493.50;5082135;28;20498;-79
2021/06/12 06:03:04;;;;;;;7.57;2.28;;;;;;;19.52;52.01;99501.16;5116734;28;20035;-77
2021/06/12 06:05:30;;;;;;;9.13;4.82;;;;;;;19.58;51.83;99488.72;5117389;28;20428;-76
2021/06/12 06:07:56;;;;;;;4.07;2.00;;;;;;;19.53;51.79;99489.28;5116830;28;20173;-77
2021/06/12 06:10:21;;;;;;;7.57;3.10;;;;;;;19.55;52.23;99487.22;5116593;28;20503;-77
2021/06/12 06:12:48;;;;;;;4.55;2.40;;;;;;;19.56;51.75;99502.47;5098466;28;20044;-77
2021/06/12 06:15:14;;;;;;;5.80;2.03;;;;;;;19.52;51.95;99505.69;5098517;28;20109;-77
2021/06/12 06:17:40;;;;;;;4.95;2.30;;;;;;;19.54;51.61;99501.78;5081567;28;20386;-77
2021/06/12 06:20:07;;;;;;;11.20;2.78;;;;;;;19.63;51.21;99506.22;5098693;28;20043;-75
2021/06/12 06:22:33;;;;;;;14.35;2.30;;;;;;;19.68;51.11;99502.13;5065369;28;20447;-76
2021/06/12 06:24:59;;;;;;;6.63;2.45;;;;;;;19.62;50.81;99504.50;5116424;28;20128;-78
2021/06/12 06:27:25;;;;;;;5.65;2.25;;;;;;;19.85;50.67;99506.41;5048006;28;20048;-77
2021/06/12 06:29:52;;;;;;;6.78;2.03;;;;;;;19.88;50.09;99496.06;5098239;28;20150;-76
2021/06/12 06:32:18;;;;;;;5.60;2.58;;;;;;;20.00;50.16;99501.91;5081057;28;20055;-77
2021/06/12 06:34:53;;;;;;;8.00;2.38;;;;;;;19.99;49.42;99502.94;5082251;28;20533;-76
2021/06/12 06:37:19;;;;;;;9.70;2.42;;;;;;;20.21;49.02;99506.69;5097761;28;20126;-75
2021/06/12 06:39:45;;;;;;;5.43;2.30;;;;;;;20.39;48.53;99490.09;5106186;27;20043;-75
2021/06/12 06:42:11;;;;;;;16.35;2.22;;;;;;;20.61;48.55;99504.69;5100467;27;20074;-75
2021/06/12 06:44:37;;;;;;;10.40;3.65;;;;;;;20.86;48.43;99510.75;5101108;27;20046;-76
2021/06/12 06:47:04;;;;;;;6.80;2.13;;;;;;;21.08;48.03;99511.72;5136762;27;20054;-76
2021/06/12 06:49:30;;;;;;;6.45;2.28;;;;;;;21.20;47.52;99509.38;5118973;27;20447;-77
2021/06/12 06:51:56;;;;;;;6.82;2.45;;;;;;;21.42;47.67;99513.06;5101082;27;20043;-77
2021/06/12 06:54:22;;;;;;;8.48;2.10;;;;;;;21.55;47.52;99519.53;5130379;27;20063;-76
2021/06/12 06:56:48;;;;;;;5.70;2.38;;;;;;;21.55;47.26;99507.78;5113707;28;20049;-77
2021/06/12 06:59:15;;;;;;;6.32;2.13;;;;;;;21.57;47.20;99512.00;5062018;28;20533;-77
2021/06/12 07:01:42;;;;;;;8.75;2.28;;;;;;;21.57;47.03;99512.00;5095492;28;20043;-76
2021/06/12 07:04:08;;;;;;;7.20;2.90;;;;;;;21.61;46.76;99500.75;5114212;28;20719;-77
2021/06/12 07:06:33;;;;;;;6.57;2.40;;;;;;;21.52;46.78;99497.31;5112846;28;20043;-74
2021/06/12 07:08:59;;;;;;;6.75;2.13;;;;;;;21.55;46.76;99505.06;5079688;28;20455;-77
2021/06/12 07:11:25;;;;;;;8.98;2.80;;;;;;;21.66;46.53;99499.13;5115205;28;20035;-77
2021/06/12 07:13:51;;;;;;;9.27;2.45;;;;;;;21.77;46.32;99500.53;5114224;28;20143;-77
2021/06/12 07:16:17;;;;;;;4.63;3.20;;;;;;;21.91;46.56;99494.22;5115372;28;20127;-77
2021/06/12 07:18:43;;;;;;;12.90;2.72;;;;;;;22.15;45.96;99497.63;5115497;28;20441;-76
2021/06/12 07:21:09;;;;;;;9.73;2.85;;;;;;;22.11;45.67;99496.28;5115274;28;20388;-76
2021/06/12 07:23:35;;;;;;;6.88;2.70;;;;;;;22.19;45.68;99491.63;5079940;28;20097;-76
2021/06/12 07:26:00;;;;;;;10.00;2.90;;;;;;;22.15;45.64;99486.72;5097032;28;20086;-77
2021/06/12 07:28:26;;;;;;;9.13;2.78;;;;;;;22.17;45.64;99479.22;5114773;28;20051;-75
2021/06/12 07:30:52;;;;;;;10.98;2.90;;;;;;;22.24;45.84;99478.25;5114646;28;20128;-76
2021/06/12 07:33:19;;;;;;;12.63;2.80;;;;;;;22.29;45.44;99466.78;5096819;28;20134;-75
2021/06/12 07:35:45;;;;;;;10.68;2.53;;;;;;;22.27;45.52;99464.25;5114743;28;20127;-76
2021/06/12 07:38:11;;;;;;;12.85;3.08;;;;;;;22.22;45.52;99466.69;5114753;28;20032;-75
2021/06/12 07:40:37;;;;;;;11.70;2.75;;;;;;;22.26;45.80;99462.53;5079624;28;20051;-76
2021/06/12 07:43:03;;;;;;;4.90;2.50;;;;;;;22.36;45.47;99467.69;5114664;28;20590;-75
2021/06/12 07:45:29;;;;;;;17.50;2.85;;;;;;;22.49;45.58;99461.50;5062951;28;20498;-76
2021/06/12 07:47:55;;;;;;;7.80;2.80;;;;;;;22.52;45.26;99464.66;5096700;28;20049;-77
2021/06/12 07:50:21;;;;;;;13.30;3.47;;;;;;;22.58;45.29;99470.38;5079531;28;20031;-77
2021/06/12 07:52:47;;;;;;;10.48;2.72;;;;;;;22.62;45.03;99466.22;5096402;28;20510;-77
2021/06/12 07:55:13;;;;;;;10.02;2.53;;;;;;;22.62;44.84;99461.59;5113889;28;20056;-76
2021/06/12 07:57:39;;;;;;;5.18;2.63;;;;;;;22.49;44.89;99466.94;5114694;28;20050;-76
2021/06/12 08:00:07;;;;;;;11.43;2.80;;;;;;;22.40;45.08;99459.97;5096390;28;20126;-76
2021/06/12 08:02:39;;;;;;;12.68;3.53;;;;;;;22.36;45.37;99462.22;5114287;28;20562;-76
2021/06/12 08:05:08;;;;;;;5.40;2.60;;;;;;;22.32;45.54;99460.09;5112554;28;20079;-75
2021/06/12 08:07:34;;;;;;;13.18;3.20;;;;;;;22.22;45.81;99472.16;5079324;28;20104;-75
2021/06/12 08:10:02;;;;;;;6.22;2.70;;;;;;;22.24;45.90;99469.25;5114277;28;20126;-76
2021/06/12 08:12:30;;;;;;;13.18;3.10;;;;;;;22.21;46.19;99466.91;5114293;28;20047;-76
2021/06/12 08:14:56;;;;;;;16.08;2.90;;;;;;;22.21;46.19;99466.91;5113101;28;20083;-76
2021/06/12 08:17:22;;;;;;;10.68;3.00;;;;;;;22.24;46.55;99463.81;5114060;28;20088;-76
2021/06/12 08:19:48;;;;;;;9.00;3.20;;;;;;;22.27;46.71;99463.41;5114147;28;20039;-77
2021/06/12 08:22:14;;;;;;;8.27;2.75;;;;;;;22.27;46.69;99455.25;5113033;28;20135;-76
2021/06/12 08:24:40;;;;;;;13.15;3.25;;;;;;;22.29;46.87;99464.03;5095599;28;20044;-77
2021/06/12 08:27:07;;;;;;;18.52;3.13;;;;;;;22.35;46.78;99463.28;5113891;28;20047;-77
2021/06/12 08:29:33;;;;;;;5.68;2.40;;;;;;;22.39;46.50;99456.41;5112921;28;20440;-76
2021/06/12 08:31:59;;;;;;;12.82;2.58;;;;;;;22.31;46.70;99442.91;5079536;28;20050;-76
2021/06/12 08:34:25;;;;;;;19.67;3.63;;;;;;;22.35;46.54;99446.94;5113006;28;20522;-77
2021/06/12 08:36:50;;;;;;;15.50;2.90;;;;;;;22.42;46.92;99455.16;5096003;28;20067;-77
2021/06/12 08:39:16;;;;;;;10.63;2.80;;;;;;;22.39;46.40;99447.38;5113110;28;20052;-76
2021/06/12 08:41:43;;;;;;;7.78;2.83;;;;;;;22.41;46.43;99459.75;5113205;28;20193;-76
2021/06/12 08:44:12;;;;;;;12.88;3.10;;;;;;;22.27;46.24;99437.03;5095930;28;20058;-76
2021/06/12 08:46:38;;;;;;;;;;;;;;;22.37;46.36;99458.47;5113017;28;20193;-76
2021/06/12 08:49:03;;;;;;;14.43;3.20;;;;;;;22.33;46.74;99454.44;5113597;28;19958;-76
2021/06/12 08:51:29;;;;;;;14.38;2.88;;;;;;;22.38;46.65;99465.63;5115558;28;20070;-77
2021/06/12 08:53:55;;;;;;;11.93;2.78;;;;;;;22.47;46.55;99467.16;5112113;28;20039;-77
2021/06/12 08:56:21;;;;;;;7.10;3.22;;;;;;;22.48;45.92;99460.66;5098953;27;20476;-77
2021/06/12 08:58:47;;;;;;;11.52;3.22;;;;;;;22.42;46.45;99466.06;5065572;27;20043;-77
2021/06/12 09:01:14;;;;;;;7.00;3.20;;;;;;;22.50;46.29;99474.94;5115907;27;20047;-76
2021/06/12 09:03:41;;;;;;;8.75;3.10;;;;;;;22.64;45.90;99459.53;5115508;27;20383;-76
2021/06/12 09:06:07;;;;;;;7.55;2.90;;;;;;;22.84;45.58;99464.28;5065139;27;20148;-76
2021/06/12 09:08:37;;;;;;;10.27;2.90;;;;;;;23.06;45.21;99467.81;5115624;27;20087;-76
2021/06/12 09:11:03;;;;;;;8.13;3.05;;;;;;;23.29;44.72;99457.47;5081816;27;20043;-76
2021/06/12 09:13:54;;;;;;;10.82;3.50;;;;;;;23.63;44.10;99466.63;5115804;28;20055;-77
2021/06/12 09:16:30;;;;;;;10.93;2.83;;;;;;;23.90;43.75;99465.69;5099466;28;20043;-77
2021/06/12 09:19:04;;;;;;;8.55;3.42;;;;;;;24.08;43.36;99456.91;5133631;27;20039;-77
2021/06/12 09:21:34;;;;;;;12.38;3.13;;;;;;;24.20;42.87;99462.59;5081979;28;20180;-75
2021/06/12 09:24:00;;;;;;;19.10;3.80;;;;;;;24.37;42.69;99472.09;5115456;28;20078;-76
2021/06/12 09:26:51;;;;;;;16.35;2.83;;;;;;;24.70;42.04;99479.47;5098721;28;20039;-77
2021/06/12 09:29:18;;;;;;;14.80;3.00;;;;;;;24.83;41.96;99463.06;5098280;28;20070;-77
2021/06/12 09:31:46;;;;;;;12.10;2.85;;;;;;;25.09;42.23;99481.31;5133783;28;20042;-77
2021/06/12 09:34:14;;;;;;;16.02;3.03;;;;;;;25.27;41.81;99483.41;5133851;27;20121;-77
2021/06/12 09:36:40;;;;;;;17.73;2.95;;;;;;;25.44;41.35;99478.31;5115233;28;20050;-78
2021/06/12 09:39:11;;;;;;;11.15;2.97;;;;;;;25.71;41.30;99473.56;5133390;28;20047;-76
2021/06/12 09:41:37;;;;;;;12.70;2.70;;;;;;;26.23;40.87;99471.59;5098269;28;20504;-77
2021/06/12 09:44:04;;;;;;;9.90;3.13;;;;;;;26.77;39.88;99472.88;5098152;27;20119;-77
2021/06/12 09:46:41;;;;;;;13.30;3.40;;;;;;;27.39;39.04;99480.31;5115277;28;20054;-78
2021/06/12 09:49:08;;;;;;;12.63;4.07;;;;;;;27.95;38.48;99473.72;5133837;28;20192;-77
2021/06/12 09:51:34;;;;;;;21.15;3.20;;;;;;;28.62;37.47;99471.63;5048095;28;20513;-76
2021/06/12 09:54:02;;;;;;;16.63;3.40;;;;;;;28.95;36.20;99472.97;5114981;28;20085;-77
2021/06/12 09:56:28;;;;;;;12.95;3.15;;;;;;;29.28;35.60;99472.38;5115206;27;20035;-79
2021/06/12 09:58:56;;;;;;;17.70;3.65;;;;;;;28.78;35.54;99459.94;5133043;27;20556;-76
2021/06/12 10:01:24;;;;;;;14.23;3.25;;;;;;;29.28;36.22;99473.22;5098323;28;20043;-77
2021/06/12 10:04:09;;;;;;;;;;;;;;;29.71;35.43;99482.13;5115713;28;20064;-75
2021/06/12 10:06:36;;;;;;;13.40;3.45;;;;;;;30.01;35.55;99470.88;5098030;28;19919;-79
2021/06/12 10:09:02;;;;;;;9.80;2.92;;;;;;;30.33;34.66;99474.00;5062574;28;20039;-82
2021/06/12 10:11:30;;;;;;;13.80;3.40;;;;;;;30.49;33.70;99472.31;5095613;28;20039;-76
2021/06/12 10:13:56;;;;;;;13.60;3.38;;;;;;;30.48;33.54;99481.69;5114899;28;20520;-78
2021/06/12 10:16:24;;;;;;;10.80;3.58;;;;;;;30.36;33.47;99478.19;5117622;27;20126;-78
2021/06/12 10:18:54;;;;;;;13.32;3.45;;;;;;;30.21;33.10;99482.31;5119075;27;20039;-77
2021/06/12 10:21:20;;;;;;;12.13;3.47;;;;;;;30.65;33.29;99473.41;5101492;27;20051;-76
2021/06/12 10:23:47;;;;;;;11.18;3.58;;;;;;;31.04;32.40;99479.88;5106845;27;20054;-79
2021/06/12 10:26:14;;;;;;;9.45;3.70;;;;;;;31.53;31.42;99477.25;5136602;27;20415;-77
2021/06/12 10:28:40;;;;;;;10.55;4.00;;;;;;;31.43;31.76;99477.13;5084175;27;20134;-80
2021/06/12 10:31:07;;;;;;;16.38;4.07;;;;;;;31.52;31.83;99483.88;5083129;27;20532;-80
2021/06/12 10:33:33;;;;;;;10.83;3.90;;;;;;;31.49;31.92;99487.16;5100893;27;20039;-75
2021/06/12 10:36:16;;;;;;;8.57;3.97;;;;;;;31.23;31.71;99476.81;5135961;27;20092;-74
2021/06/12 10:38:42;;;;;;;19.05;3.55;;;;;;;31.45;30.33;99472.19;5101455;27;20092;-77
2021/06/12 10:41:21;;;;;;;15.88;3.70;;;;;;;31.58;30.67;99480.06;5117803;27;20043;-77
2021/06/12 10:43:48;;;;;;;11.65;3.20;;;;;;;31.78;29.98;99467.59;5111390;27;20047;-77
2021/06/12 10:46:19;;;;;;;8.88;2.90;;;;;;;32.35;29.77;99473.50;5116429;27;20043;-78
2021/06/12 10:48:53;;;;;;;7.88;3.13;;;;;;;32.95;29.05;99465.16;5081153;28;20043;-78
2021/06/12 10:51:25;;;;;;;9.55;2.83;;;;;;;33.25;28.95;99470.06;5048560;28;20048;-77
2021/06/12 10:54:19;;;;;;;6.05;2.65;;;;;;;34.01;27.49;99462.13;5097207;28;20127;-77
2021/06/12 10:57:11;;;;;;;7.22;3.08;;;;;;;34.37;27.26;99464.94;5096696;28;20078;-78
2021/06/12 10:59:36;;;;;;;11.15;2.90;;;;;;;34.33;27.48;99463.81;5101648;28;20541;-77
2021/06/12 11:02:07;;;;;;;11.55;3.38;;;;;;;34.38;27.81;99457.44;5114354;28;20056;-78
2021/06/12 11:04:44;;;;;;;13.27;3.30;;;;;;;34.41;27.77;99454.94;5080300;28;20059;-77
2021/06/12 11:07:27;;;;;;;10.77;3.05;;;;;;;34.40;27.77;99441.34;5079677;28;20057;-77
2021/06/12 11:10:13;;;;;;;15.05;3.28;;;;;;;34.56;27.12;99445.81;5065937;28;20387;-75
2021/06/12 11:12:39;;;;;;;13.65;3.30;;;;;;;34.80;27.42;99434.97;5116818;27;20097;-79
2021/06/12 11:15:06;;;;;;;14.57;3.50;;;;;;;35.44;26.71;99442.59;5123372;27;20086;-77
2021/06/12 11:17:32;;;;;;;7.60;2.90;;;;;;;36.09;26.42;99430.63;5114809;28;20397;-77
2021/06/12 11:19:58;;;;;;;9.77;3.42;;;;;;;36.68;25.68;99435.19;5114987;28;20051;-76
2021/06/12 11:22:32;;;;;;;9.88;3.30;;;;;;;36.71;25.17;99426.22;5114966;28;20082;-76
2021/06/12 11:25:09;;;;;;;10.15;3.70;;;;;;;36.61;25.61;99416.03;5062597;28;20143;-75
2021/06/12 11:27:43;;;;;;;14.43;3.07;;;;;;;36.98;25.18;99422.13;5063023;28;20573;-75
2021/06/12 11:30:18;;;;;;;5.57;3.03;;;;;;;37.32;24.34;99428.41;5062420;28;20410;-76
2021/06/12 11:32:59;;;;;;;10.40;3.53;;;;;;;36.85;24.20;99418.84;5079920;28;20498;-78
2021/06/12 11:35:40;;;;;;;10.02;3.15;;;;;;;36.66;24.29;99420.72;5081761;28;20498;-74